sensor_id;sensor_type;location;lat;lon;timestamp;temperature;humidity
5457;DHT22;2751;49.802;9.944;2023-03-26T00:02:15;9.20;47.50
5457;DHT22;2751;49.802;9.944;2023-03-26T00:04:42;8.70;60.50
5457;DHT22;2751;49.802;9.944;2023-03-26T00:07:11;8.70;54.60
5457;DHT22;2751;49.802;9.944;2023-03-26T00:09:38;8.70;51.50
5457;DHT22;2751;49.802;9.944;2023-03-26T00:12:05;8.80;48.90
5457;DHT22;2751;49.802;9.944;2023-03-26T00:14:32;8.70;46.40
5457;DHT22;2751;49.802;9.944;2023-03-26T00:17:01;8.70;53.20
5457;DHT22;2751;49.802;9.944;2023-03-26T00:19:28;8.70;44.10
5457;DHT22;2751;49.802;9.944;2023-03-26T00:21:55;8.80;48.30
5457;DHT22;2751;49.802;9.944;2023-03-26T00:24:22;8.80;45.30
5457;DHT22;2751;49.802;9.944;2023-03-26T00:26:54;8.80;40.90
5457;DHT22;2751;49.802;9.944;2023-03-26T00:29:21;8.80;59.10
5457;DHT22;2751;49.802;9.944;2023-03-26T00:31:49;8.80;62.00
5457;DHT22;2751;49.802;9.944;2023-03-26T00:34:17;8.80;59.60
5457;DHT22;2751;49.802;9.944;2023-03-26T00:36:45;8.80;63.70
5457;DHT22;2751;49.802;9.944;2023-03-26T00:39:12;8.90;54.50
5457;DHT22;2751;49.802;9.944;2023-03-26T00:41:39;8.90;51.50
5457;DHT22;2751;49.802;9.944;2023-03-26T00:44:08;8.90;50.90
5457;DHT22;2751;49.802;9.944;2023-03-26T00:46:35;9.00;51.90
5457;DHT22;2751;49.802;9.944;2023-03-26T00:49:03;9.00;53.60
5457;DHT22;2751;49.802;9.944;2023-03-26T00:51:31;9.20;58.50
5457;DHT22;2751;49.802;9.944;2023-03-26T00:53:59;9.00;51.10
5457;DHT22;2751;49.802;9.944;2023-03-26T00:56:26;9.00;54.50
5457;DHT22;2751;49.802;9.944;2023-03-26T00:58:53;9.00;52.00
5457;DHT22;2751;49.802;9.944;2023-03-26T01:01:23;9.00;61.10
5457;DHT22;2751;49.802;9.944;2023-03-26T01:03:52;9.00;52.60
5457;DHT22;2751;49.802;9.944;2023-03-26T01:06:25;9.00;50.80
5457;DHT22;2751;49.802;9.944;2023-03-26T01:09:02;9.00;52.30
5457;DHT22;2751;49.802;9.944;2023-03-26T01:11:31;8.90;53.30
5457;DHT22;2751;49.802;9.944;2023-03-26T01:14:03;8.90;54.10
5457;DHT22;2751;49.802;9.944;2023-03-26T01:16:35;8.90;60.20
5457;DHT22;2751;49.802;9.944;2023-03-26T01:19:03;8.90;58.40
5457;DHT22;2751;49.802;9.944;2023-03-26T01:21:34;8.90;45.50
5457;DHT22;2751;49.802;9.944;2023-03-26T01:24:05;8.80;47.10
5457;DHT22;2751;49.802;9.944;2023-03-26T01:29:34;8.80;47.30
5457;DHT22;2751;49.802;9.944;2023-03-26T01:32:14;8.70;45.90
5457;DHT22;2751;49.802;9.944;2023-03-26T01:34:51;8.70;59.60
5457;DHT22;2751;49.802;9.944;2023-03-26T01:37:24;8.60;67.80
5457;DHT22;2751;49.802;9.944;2023-03-26T01:40:00;8.60;45.00
5457;DHT22;2751;49.802;9.944;2023-03-26T01:42:35;8.50;53.00
5457;DHT22;2751;49.802;9.944;2023-03-26T01:45:09;8.50;53.40
5457;DHT22;2751;49.802;9.944;2023-03-26T01:47:37;8.40;52.00
5457;DHT22;2751;49.802;9.944;2023-03-26T01:50:06;8.40;49.70
5457;DHT22;2751;49.802;9.944;2023-03-26T01:52:34;8.30;50.30
5457;DHT22;2751;49.802;9.944;2023-03-26T01:55:02;8.30;54.00
5457;DHT22;2751;49.802;9.944;2023-03-26T01:57:35;8.30;52.70
5457;DHT22;2751;49.802;9.944;2023-03-26T02:00:15;8.20;54.50
5457;DHT22;2751;49.802;9.944;2023-03-26T02:02:55;8.20;67.30
5457;DHT22;2751;49.802;9.944;2023-03-26T02:05:26;8.10;50.20
5457;DHT22;2751;49.802;9.944;2023-03-26T02:08:00;8.10;55.20
5457;DHT22;2751;49.802;9.944;2023-03-26T02:10:34;8.00;56.80
5457;DHT22;2751;49.802;9.944;2023-03-26T02:13:03;8.00;56.50
5457;DHT22;2751;49.802;9.944;2023-03-26T02:15:31;7.90;65.00
5457;DHT22;2751;49.802;9.944;2023-03-26T02:17:57;7.90;51.20
5457;DHT22;2751;49.802;9.944;2023-03-26T02:20:26;7.80;52.10
5457;DHT22;2751;49.802;9.944;2023-03-26T02:22:54;7.40;72.80
5457;DHT22;2751;49.802;9.944;2023-03-26T02:25:22;7.80;51.80
5457;DHT22;2751;49.802;9.944;2023-03-26T02:27:51;7.80;61.60
5457;DHT22;2751;49.802;9.944;2023-03-26T02:30:20;7.80;51.20
5457;DHT22;2751;49.802;9.944;2023-03-26T02:32:50;7.80;52.90
5457;DHT22;2751;49.802;9.944;2023-03-26T02:35:19;7.80;58.80
5457;DHT22;2751;49.802;9.944;2023-03-26T02:37:46;7.60;53.50
5457;DHT22;2751;49.802;9.944;2023-03-26T02:40:16;7.90;60.70
5457;DHT22;2751;49.802;9.944;2023-03-26T02:42:45;7.70;80.00
5457;DHT22;2751;49.802;9.944;2023-03-26T02:45:17;7.70;84.50
5457;DHT22;2751;49.802;9.944;2023-03-26T02:47:44;7.70;63.80
5457;DHT22;2751;49.802;9.944;2023-03-26T02:50:10;7.70;88.60
5457;DHT22;2751;49.802;9.944;2023-03-26T02:52:37;7.70;76.20
5457;DHT22;2751;49.802;9.944;2023-03-26T02:55:05;7.70;78.20
5457;DHT22;2751;49.802;9.944;2023-03-26T02:57:31;7.60;76.70
5457;DHT22;2751;49.802;9.944;2023-03-26T02:59:59;7.60;81.80
5457;DHT22;2751;49.802;9.944;2023-03-26T03:02:30;7.60;81.60
5457;DHT22;2751;49.802;9.944;2023-03-26T03:04:57;7.60;62.00
5457;DHT22;2751;49.802;9.944;2023-03-26T03:07:26;7.60;65.10
5457;DHT22;2751;49.802;9.944;2023-03-26T03:09:53;8.00;80.00
5457;DHT22;2751;49.802;9.944;2023-03-26T03:12:20;7.60;89.30
5457;DHT22;2751;49.802;9.944;2023-03-26T03:14:47;7.50;93.10
5457;DHT22;2751;49.802;9.944;2023-03-26T03:17:13;7.50;88.50
5457;DHT22;2751;49.802;9.944;2023-03-26T03:19:42;7.50;63.60
5457;DHT22;2751;49.802;9.944;2023-03-26T03:22:09;7.50;88.90
5457;DHT22;2751;49.802;9.944;2023-03-26T03:24:36;7.70;88.20
5457;DHT22;2751;49.802;9.944;2023-03-26T03:27:04;7.50;82.10
5457;DHT22;2751;49.802;9.944;2023-03-26T03:29:31;7.50;76.20
5457;DHT22;2751;49.802;9.944;2023-03-26T03:31:58;7.50;75.70
5457;DHT22;2751;49.802;9.944;2023-03-26T03:34:25;7.50;75.00
5457;DHT22;2751;49.802;9.944;2023-03-26T03:36:53;7.50;88.30
5457;DHT22;2751;49.802;9.944;2023-03-26T03:39:20;7.50;82.50
5457;DHT22;2751;49.802;9.944;2023-03-26T03:41:47;7.50;82.20
5457;DHT22;2751;49.802;9.944;2023-03-26T03:44:14;7.70;83.10
5457;DHT22;2751;49.802;9.944;2023-03-26T03:46:42;7.50;76.50
5457;DHT22;2751;49.802;9.944;2023-03-26T03:49:08;7.50;68.90
5457;DHT22;2751;49.802;9.944;2023-03-26T03:51:35;7.40;68.80
5457;DHT22;2751;49.802;9.944;2023-03-26T03:54:04;7.40;63.30
5457;DHT22;2751;49.802;9.944;2023-03-26T03:56:31;7.40;81.20
5457;DHT22;2751;49.802;9.944;2023-03-26T03:58:57;7.40;79.20
5457;DHT22;2751;49.802;9.944;2023-03-26T04:01:24;7.40;58.30
5457;DHT22;2751;49.802;9.944;2023-03-26T04:03:51;7.30;77.00
5457;DHT22;2751;49.802;9.944;2023-03-26T04:06:18;7.30;85.40
5457;DHT22;2751;49.802;9.944;2023-03-26T04:08:45;7.30;83.50
5457;DHT22;2751;49.802;9.944;2023-03-26T04:11:13;7.30;90.00
5457;DHT22;2751;49.802;9.944;2023-03-26T04:13:40;7.60;78.10
5457;DHT22;2751;49.802;9.944;2023-03-26T04:16:07;7.20;94.90
5457;DHT22;2751;49.802;9.944;2023-03-26T04:18:34;7.20;90.10
5457;DHT22;2751;49.802;9.944;2023-03-26T04:21:03;7.20;93.80
5457;DHT22;2751;49.802;9.944;2023-03-26T04:23:30;7.20;78.20
5457;DHT22;2751;49.802;9.944;2023-03-26T04:26:01;7.20;91.00
5457;DHT22;2751;49.802;9.944;2023-03-26T04:28:32;7.20;92.00
5457;DHT22;2751;49.802;9.944;2023-03-26T04:31:01;7.30;93.50
5457;DHT22;2751;49.802;9.944;2023-03-26T04:33:30;7.40;67.90
5457;DHT22;2751;49.802;9.944;2023-03-26T04:35:58;7.40;67.90
5457;DHT22;2751;49.802;9.944;2023-03-26T04:38:28;7.50;90.70
5457;DHT22;2751;49.802;9.944;2023-03-26T04:40:58;7.60;67.30
5457;DHT22;2751;49.802;9.944;2023-03-26T04:43:25;7.60;74.70
5457;DHT22;2751;49.802;9.944;2023-03-26T04:45:53;7.70;62.40
5457;DHT22;2751;49.802;9.944;2023-03-26T04:48:20;7.70;61.30
5457;DHT22;2751;49.802;9.944;2023-03-26T04:50:48;7.70;82.60
5457;DHT22;2751;49.802;9.944;2023-03-26T04:53:17;8.00;89.80
5457;DHT22;2751;49.802;9.944;2023-03-26T04:55:46;7.70;63.50
5457;DHT22;2751;49.802;9.944;2023-03-26T04:58:15;7.70;71.60
5457;DHT22;2751;49.802;9.944;2023-03-26T05:00:42;7.70;59.80
5457;DHT22;2751;49.802;9.944;2023-03-26T05:03:11;7.70;88.60
5457;DHT22;2751;49.802;9.944;2023-03-26T05:05:38;7.70;61.50
5457;DHT22;2751;49.802;9.944;2023-03-26T05:08:05;7.70;84.70
5457;DHT22;2751;49.802;9.944;2023-03-26T05:10:32;7.70;64.30
5457;DHT22;2751;49.802;9.944;2023-03-26T05:12:59;7.60;90.30
5457;DHT22;2751;49.802;9.944;2023-03-26T05:15:26;7.60;56.70
5457;DHT22;2751;49.802;9.944;2023-03-26T05:17:53;7.70;62.30
5457;DHT22;2751;49.802;9.944;2023-03-26T05:20:23;7.70;83.90
5457;DHT22;2751;49.802;9.944;2023-03-26T05:22:52;7.70;63.90
5457;DHT22;2751;49.802;9.944;2023-03-26T05:25:20;7.80;75.40
5457;DHT22;2751;49.802;9.944;2023-03-26T05:27:47;7.80;68.50
5457;DHT22;2751;49.802;9.944;2023-03-26T05:30:16;7.80;77.30
5457;DHT22;2751;49.802;9.944;2023-03-26T05:32:43;7.80;68.50
5457;DHT22;2751;49.802;9.944;2023-03-26T05:35:10;7.70;87.60
5457;DHT22;2751;49.802;9.944;2023-03-26T05:37:38;7.60;86.30
5457;DHT22;2751;49.802;9.944;2023-03-26T05:40:06;7.60;81.80
5457;DHT22;2751;49.802;9.944;2023-03-26T05:42:36;7.60;83.50
5457;DHT22;2751;49.802;9.944;2023-03-26T05:45:04;7.70;67.10
5457;DHT22;2751;49.802;9.944;2023-03-26T05:47:31;7.70;84.90
5457;DHT22;2751;49.802;9.944;2023-03-26T05:49:59;7.70;82.30
5457;DHT22;2751;49.802;9.944;2023-03-26T05:52:26;7.70;55.70
5457;DHT22;2751;49.802;9.944;2023-03-26T05:54:54;7.80;79.00
5457;DHT22;2751;49.802;9.944;2023-03-26T05:57:21;7.80;76.50
5457;DHT22;2751;49.802;9.944;2023-03-26T05:59:48;7.90;88.30
5457;DHT22;2751;49.802;9.944;2023-03-26T06:02:15;8.20;61.60
5457;DHT22;2751;49.802;9.944;2023-03-26T06:04:42;7.90;72.60
5457;DHT22;2751;49.802;9.944;2023-03-26T06:07:10;8.00;73.70
5457;DHT22;2751;49.802;9.944;2023-03-26T06:09:37;8.10;71.00
5457;DHT22;2751;49.802;9.944;2023-03-26T06:12:08;8.10;82.20
5457;DHT22;2751;49.802;9.944;2023-03-26T06:14:35;8.10;76.60
5457;DHT22;2751;49.802;9.944;2023-03-26T06:17:02;8.20;88.50
5457;DHT22;2751;49.802;9.944;2023-03-26T06:19:29;8.20;83.90
5457;DHT22;2751;49.802;9.944;2023-03-26T06:21:56;8.30;86.90
5457;DHT22;2751;49.802;9.944;2023-03-26T06:24:23;8.30;55.90
5457;DHT22;2751;49.802;9.944;2023-03-26T06:26:50;8.40;74.50
5457;DHT22;2751;49.802;9.944;2023-03-26T06:29:19;8.40;68.20
5457;DHT22;2751;49.802;9.944;2023-03-26T06:31:46;8.80;63.80
5457;DHT22;2751;49.802;9.944;2023-03-26T06:34:13;8.60;78.00
5457;DHT22;2751;49.802;9.944;2023-03-26T06:36:39;8.70;72.70
5457;DHT22;2751;49.802;9.944;2023-03-26T06:39:06;8.80;54.80
5457;DHT22;2751;49.802;9.944;2023-03-26T06:41:33;8.90;57.40
5457;DHT22;2751;49.802;9.944;2023-03-26T06:44:00;8.90;67.00
5457;DHT22;2751;49.802;9.944;2023-03-26T06:46:29;9.00;67.00
5457;DHT22;2751;49.802;9.944;2023-03-26T06:48:56;9.10;60.70
5457;DHT22;2751;49.802;9.944;2023-03-26T06:51:22;9.00;67.10
5457;DHT22;2751;49.802;9.944;2023-03-26T06:53:49;9.00;66.80
5457;DHT22;2751;49.802;9.944;2023-03-26T06:56:16;9.10;63.10
5457;DHT22;2751;49.802;9.944;2023-03-26T06:58:43;9.10;81.60
5457;DHT22;2751;49.802;9.944;2023-03-26T07:01:10;9.00;68.60
5457;DHT22;2751;49.802;9.944;2023-03-26T07:03:38;9.10;56.80
5457;DHT22;2751;49.802;9.944;2023-03-26T07:06:06;9.20;69.40
5457;DHT22;2751;49.802;9.944;2023-03-26T07:08:33;9.30;53.20
5457;DHT22;2751;49.802;9.944;2023-03-26T07:10:59;9.30;57.40
5457;DHT22;2751;49.802;9.944;2023-03-26T07:13:26;9.30;62.00
5457;DHT22;2751;49.802;9.944;2023-03-26T07:15:53;9.40;51.50
5457;DHT22;2751;49.802;9.944;2023-03-26T07:18:20;9.50;66.10
5457;DHT22;2751;49.802;9.944;2023-03-26T07:20:49;9.50;58.30
5457;DHT22;2751;49.802;9.944;2023-03-26T07:23:16;9.70;60.20
5457;DHT22;2751;49.802;9.944;2023-03-26T07:25:45;9.60;67.40
5457;DHT22;2751;49.802;9.944;2023-03-26T07:28:19;9.40;49.70
5457;DHT22;2751;49.802;9.944;2023-03-26T07:31:05;9.90;50.10
5457;DHT22;2751;49.802;9.944;2023-03-26T07:33:37;9.80;50.80
5457;DHT22;2751;49.802;9.944;2023-03-26T07:36:19;9.70;46.70
5457;DHT22;2751;49.802;9.944;2023-03-26T07:38:58;9.70;49.60
5457;DHT22;2751;49.802;9.944;2023-03-26T07:41:34;9.70;61.90
5457;DHT22;2751;49.802;9.944;2023-03-26T07:46:54;9.50;53.00
5457;DHT22;2751;49.802;9.944;2023-03-26T07:49:21;9.50;52.40
5457;DHT22;2751;49.802;9.944;2023-03-26T07:51:50;9.50;64.20
5457;DHT22;2751;49.802;9.944;2023-03-26T07:54:17;9.50;53.90
5457;DHT22;2751;49.802;9.944;2023-03-26T07:56:49;9.50;53.80
5457;DHT22;2751;49.802;9.944;2023-03-26T07:59:21;9.60;51.30
5457;DHT22;2751;49.802;9.944;2023-03-26T08:02:06;9.50;82.10
5457;DHT22;2751;49.802;9.944;2023-03-26T08:04:54;9.50;61.80
5457;DHT22;2751;49.802;9.944;2023-03-26T08:07:35;9.40;49.80
5457;DHT22;2751;49.802;9.944;2023-03-26T08:10:09;9.20;58.30
5457;DHT22;2751;49.802;9.944;2023-03-26T08:12:51;9.00;59.50
5457;DHT22;2751;49.802;9.944;2023-03-26T08:15:24;9.00;68.30
5457;DHT22;2751;49.802;9.944;2023-03-26T08:17:57;8.90;80.10
5457;DHT22;2751;49.802;9.944;2023-03-26T08:20:32;9.30;82.70
5457;DHT22;2751;49.802;9.944;2023-03-26T08:23:10;9.30;88.60
5457;DHT22;2751;49.802;9.944;2023-03-26T08:25:50;9.10;89.70
5457;DHT22;2751;49.802;9.944;2023-03-26T08:28:38;9.00;85.50
5457;DHT22;2751;49.802;9.944;2023-03-26T08:31:09;9.10;95.40
5457;DHT22;2751;49.802;9.944;2023-03-26T08:33:37;9.10;91.70
5457;DHT22;2751;49.802;9.944;2023-03-26T08:36:05;9.20;82.40
5457;DHT22;2751;49.802;9.944;2023-03-26T08:38:34;9.10;72.00
5457;DHT22;2751;49.802;9.944;2023-03-26T08:41:21;9.00;79.00
5457;DHT22;2751;49.802;9.944;2023-03-26T08:44:33;9.00;76.60
5457;DHT22;2751;49.802;9.944;2023-03-26T08:47:26;9.10;80.00
5457;DHT22;2751;49.802;9.944;2023-03-26T08:50:15;9.10;91.90
5457;DHT22;2751;49.802;9.944;2023-03-26T08:53:15;9.30;97.20
5457;DHT22;2751;49.802;9.944;2023-03-26T08:55:51;9.20;96.40
5457;DHT22;2751;49.802;9.944;2023-03-26T08:58:41;9.10;93.90
5457;DHT22;2751;49.802;9.944;2023-03-26T09:01:52;9.10;95.70
5457;DHT22;2751;49.802;9.944;2023-03-26T09:07:50;9.00;99.90
5457;DHT22;2751;49.802;9.944;2023-03-26T09:13:59;9.00;98.30
5457;DHT22;2751;49.802;9.944;2023-03-26T09:16:58;9.00;98.40
5457;DHT22;2751;49.802;9.944;2023-03-26T09:25:35;9.30;99.90
5457;DHT22;2751;49.802;9.944;2023-03-26T09:28:21;9.30;99.90
5457;DHT22;2751;49.802;9.944;2023-03-26T09:31:33;9.30;99.90
5457;DHT22;2751;49.802;9.944;2023-03-26T09:34:29;9.50;99.90
5457;DHT22;2751;49.802;9.944;2023-03-26T09:37:10;9.70;99.90
5457;DHT22;2751;49.802;9.944;2023-03-26T09:39:50;9.60;99.90
5457;DHT22;2751;49.802;9.944;2023-03-26T09:42:24;9.60;99.90
5457;DHT22;2751;49.802;9.944;2023-03-26T09:45:20;9.50;99.90
5457;DHT22;2751;49.802;9.944;2023-03-26T09:51:13;9.40;99.90
5457;DHT22;2751;49.802;9.944;2023-03-26T09:54:03;9.40;99.90
5457;DHT22;2751;49.802;9.944;2023-03-26T09:56:39;9.50;99.90
5457;DHT22;2751;49.802;9.944;2023-03-26T09:59:32;9.80;99.90
5457;DHT22;2751;49.802;9.944;2023-03-26T10:02:15;9.50;99.90
5457;DHT22;2751;49.802;9.944;2023-03-26T10:05:02;9.60;99.90
5457;DHT22;2751;49.802;9.944;2023-03-26T10:07:46;9.60;99.90
5457;DHT22;2751;49.802;9.944;2023-03-26T10:10:19;9.70;99.90
5457;DHT22;2751;49.802;9.944;2023-03-26T10:12:51;9.70;99.90
5457;DHT22;2751;49.802;9.944;2023-03-26T10:15:31;9.70;99.90
5457;DHT22;2751;49.802;9.944;2023-03-26T10:18:09;9.90;99.90
5457;DHT22;2751;49.802;9.944;2023-03-26T10:20:51;10.00;99.90
5457;DHT22;2751;49.802;9.944;2023-03-26T10:23:42;10.00;99.90
5457;DHT22;2751;49.802;9.944;2023-03-26T10:29:21;9.90;99.90
5457;DHT22;2751;49.802;9.944;2023-03-26T10:31:54;9.90;99.90
5457;DHT22;2751;49.802;9.944;2023-03-26T10:34:47;9.90;99.90
5457;DHT22;2751;49.802;9.944;2023-03-26T10:37:24;10.00;99.90
5457;DHT22;2751;49.802;9.944;2023-03-26T10:40:08;10.40;99.90
5457;DHT22;2751;49.802;9.944;2023-03-26T10:46:16;10.90;94.30
5457;DHT22;2751;49.802;9.944;2023-03-26T10:48:59;10.70;93.80
5457;DHT22;2751;49.802;9.944;2023-03-26T10:51:50;10.50;96.00
5457;DHT22;2751;49.802;9.944;2023-03-26T10:54:28;10.50;95.90
5457;DHT22;2751;49.802;9.944;2023-03-26T10:57:00;10.20;91.20
5457;DHT22;2751;49.802;9.944;2023-03-26T10:59:29;10.00;93.70
5457;DHT22;2751;49.802;9.944;2023-03-26T11:02:04;9.90;96.80
5457;DHT22;2751;49.802;9.944;2023-03-26T11:04:46;9.70;99.90
5457;DHT22;2751;49.802;9.944;2023-03-26T11:07:22;9.50;99.90
5457;DHT22;2751;49.802;9.944;2023-03-26T11:09:54;9.40;99.90
5457;DHT22;2751;49.802;9.944;2023-03-26T11:12:28;9.30;99.90
5457;DHT22;2751;49.802;9.944;2023-03-26T11:15:06;9.20;99.90
5457;DHT22;2751;49.802;9.944;2023-03-26T11:17:43;9.30;99.90
5457;DHT22;2751;49.802;9.944;2023-03-26T11:20:16;10.50;99.90
5457;DHT22;2751;49.802;9.944;2023-03-26T11:22:59;11.00;99.90
5457;DHT22;2751;49.802;9.944;2023-03-26T11:25:50;11.50;99.90
5457;DHT22;2751;49.802;9.944;2023-03-26T11:28:31;11.90;89.60
5457;DHT22;2751;49.802;9.944;2023-03-26T11:31:08;12.30;96.00
5457;DHT22;2751;49.802;9.944;2023-03-26T11:33:40;12.40;79.00
5457;DHT22;2751;49.802;9.944;2023-03-26T11:36:12;12.80;75.90
5457;DHT22;2751;49.802;9.944;2023-03-26T11:38:42;14.10;75.50
5457;DHT22;2751;49.802;9.944;2023-03-26T11:41:14;17.10;68.40
5457;DHT22;2751;49.802;9.944;2023-03-26T11:43:45;18.40;45.60
5457;DHT22;2751;49.802;9.944;2023-03-26T11:46:16;17.80;44.50
5457;DHT22;2751;49.802;9.944;2023-03-26T11:48:45;17.80;30.40
5457;DHT22;2751;49.802;9.944;2023-03-26T11:51:24;17.70;8.10
5457;DHT22;2751;49.802;9.944;2023-03-26T11:53:52;17.40;1.00
5457;DHT22;2751;49.802;9.944;2023-03-26T11:56:26;16.20;2.50
5457;DHT22;2751;49.802;9.944;2023-03-26T11:58:55;15.40;4.70
5457;DHT22;2751;49.802;9.944;2023-03-26T12:01:27;15.00;1.00
5457;DHT22;2751;49.802;9.944;2023-03-26T12:03:57;14.10;1.00
5457;DHT22;2751;49.802;9.944;2023-03-26T12:06:25;13.50;6.90
5457;DHT22;2751;49.802;9.944;2023-03-26T12:08:53;13.50;1.00
5457;DHT22;2751;49.802;9.944;2023-03-26T12:11:25;13.20;4.50
5457;DHT22;2751;49.802;9.944;2023-03-26T12:13:57;13.20;1.00
5457;DHT22;2751;49.802;9.944;2023-03-26T12:16:25;13.80;4.40
5457;DHT22;2751;49.802;9.944;2023-03-26T12:19:00;14.80;2.50
5457;DHT22;2751;49.802;9.944;2023-03-26T12:21:29;15.20;11.30
5457;DHT22;2751;49.802;9.944;2023-03-26T12:24:02;15.00;1.00
5457;DHT22;2751;49.802;9.944;2023-03-26T12:26:35;14.90;4.60
5457;DHT22;2751;49.802;9.944;2023-03-26T12:29:07;14.90;3.80
5457;DHT22;2751;49.802;9.944;2023-03-26T12:31:51;14.50;10.60
5457;DHT22;2751;49.802;9.944;2023-03-26T12:34:21;14.00;1.00
5457;DHT22;2751;49.802;9.944;2023-03-26T12:36:51;14.10;8.80
5457;DHT22;2751;49.802;9.944;2023-03-26T12:39:31;14.10;12.60
5457;DHT22;2751;49.802;9.944;2023-03-26T12:42:01;14.10;20.10
5457;DHT22;2751;49.802;9.944;2023-03-26T12:44:30;14.60;1.00
5457;DHT22;2751;49.802;9.944;2023-03-26T12:47:09;15.00;15.80
5457;DHT22;2751;49.802;9.944;2023-03-26T12:49:39;14.50;13.20
5457;DHT22;2751;49.802;9.944;2023-03-26T12:52:25;15.50;8.20
5457;DHT22;2751;49.802;9.944;2023-03-26T12:54:58;18.00;1.00
5457;DHT22;2751;49.802;9.944;2023-03-26T12:57:33;18.60;1.00
5457;DHT22;2751;49.802;9.944;2023-03-26T13:00:21;17.90;1.00
5457;DHT22;2751;49.802;9.944;2023-03-26T13:03:11;18.80;1.00
5457;DHT22;2751;49.802;9.944;2023-03-26T13:06:04;20.10;1.00
5457;DHT22;2751;49.802;9.944;2023-03-26T13:08:49;19.00;1.00
5457;DHT22;2751;49.802;9.944;2023-03-26T13:11:23;17.30;1.00
5457;DHT22;2751;49.802;9.944;2023-03-26T13:14:27;16.30;1.00
5457;DHT22;2751;49.802;9.944;2023-03-26T13:17:03;15.80;1.00
5457;DHT22;2751;49.802;9.944;2023-03-26T13:19:38;15.70;1.00
5457;DHT22;2751;49.802;9.944;2023-03-26T13:22:16;15.70;1.00
5457;DHT22;2751;49.802;9.944;2023-03-26T13:24:53;15.80;1.00
5457;DHT22;2751;49.802;9.944;2023-03-26T13:27:36;15.50;1.00
5457;DHT22;2751;49.802;9.944;2023-03-26T13:30:18;14.90;1.00
5457;DHT22;2751;49.802;9.944;2023-03-26T13:32:55;14.60;1.00
5457;DHT22;2751;49.802;9.944;2023-03-26T13:35:28;14.70;1.00
5457;DHT22;2751;49.802;9.944;2023-03-26T13:38:03;14.90;1.00
5457;DHT22;2751;49.802;9.944;2023-03-26T13:40:37;14.70;1.00
5457;DHT22;2751;49.802;9.944;2023-03-26T13:43:21;14.20;1.00
5457;DHT22;2751;49.802;9.944;2023-03-26T13:45:56;13.40;1.00
5457;DHT22;2751;49.802;9.944;2023-03-26T13:48:27;13.00;1.00
5457;DHT22;2751;49.802;9.944;2023-03-26T13:51:01;12.50;1.00
5457;DHT22;2751;49.802;9.944;2023-03-26T13:53:33;11.60;1.00
5457;DHT22;2751;49.802;9.944;2023-03-26T13:56:02;11.60;1.00
5457;DHT22;2751;49.802;9.944;2023-03-26T13:58:34;11.80;1.00
5457;DHT22;2751;49.802;9.944;2023-03-26T14:01:06;12.10;11.60
5457;DHT22;2751;49.802;9.944;2023-03-26T14:03:43;11.70;3.00
5457;DHT22;2751;49.802;9.944;2023-03-26T14:06:28;11.50;1.00
5457;DHT22;2751;49.802;9.944;2023-03-26T14:08:59;11.20;7.60
5457;DHT22;2751;49.802;9.944;2023-03-26T14:11:41;11.20;2.90
5457;DHT22;2751;49.802;9.944;2023-03-26T14:14:15;11.20;5.10
5457;DHT22;2751;49.802;9.944;2023-03-26T14:16:48;11.30;1.00
5457;DHT22;2751;49.802;9.944;2023-03-26T14:19:52;11.50;11.30
5457;DHT22;2751;49.802;9.944;2023-03-26T14:22:26;11.60;1.00
5457;DHT22;2751;49.802;9.944;2023-03-26T14:25:07;11.80;4.50
5457;DHT22;2751;49.802;9.944;2023-03-26T14:27:55;12.00;1.50
5457;DHT22;2751;49.802;9.944;2023-03-26T14:33:48;12.40;2.40
5457;DHT22;2751;49.802;9.944;2023-03-26T14:36:31;12.60;1.00
5457;DHT22;2751;49.802;9.944;2023-03-26T14:39:22;12.90;1.00
5457;DHT22;2751;49.802;9.944;2023-03-26T14:41:54;13.20;1.80
5457;DHT22;2751;49.802;9.944;2023-03-26T14:44:56;13.10;1.00
5457;DHT22;2751;49.802;9.944;2023-03-26T14:47:26;12.80;1.00
5457;DHT22;2751;49.802;9.944;2023-03-26T14:53:17;12.80;1.00
5457;DHT22;2751;49.802;9.944;2023-03-26T15:02:28;12.00;17.00
5457;DHT22;2751;49.802;9.944;2023-03-26T15:11:46;11.70;6.70
5457;DHT22;2751;49.802;9.944;2023-03-26T15:14:42;11.70;7.00
5457;DHT22;2751;49.802;9.944;2023-03-26T15:17:51;11.80;4.80
5457;DHT22;2751;49.802;9.944;2023-03-26T15:20:50;12.00;4.50
5457;DHT22;2751;49.802;9.944;2023-03-26T15:23:51;12.10;12.30
5457;DHT22;2751;49.802;9.944;2023-03-26T15:27:12;12.30;17.40
5457;DHT22;2751;49.802;9.944;2023-03-26T15:30:21;12.40;14.50
5457;DHT22;2751;49.802;9.944;2023-03-26T15:33:17;12.40;13.20
5457;DHT22;2751;49.802;9.944;2023-03-26T15:36:05;12.30;18.70
5457;DHT22;2751;49.802;9.944;2023-03-26T15:39:03;12.30;5.00
5457;DHT22;2751;49.802;9.944;2023-03-26T15:41:40;12.30;8.10
5457;DHT22;2751;49.802;9.944;2023-03-26T15:44:32;12.40;9.80
5457;DHT22;2751;49.802;9.944;2023-03-26T15:47:32;12.50;11.60
5457;DHT22;2751;49.802;9.944;2023-03-26T15:50:14;12.70;5.00
5457;DHT22;2751;49.802;9.944;2023-03-26T15:52:47;12.80;1.00
5457;DHT22;2751;49.802;9.944;2023-03-26T15:55:26;12.80;1.00
5457;DHT22;2751;49.802;9.944;2023-03-26T15:58:03;12.80;2.50
5457;DHT22;2751;49.802;9.944;2023-03-26T16:00:35;12.80;1.00
5457;DHT22;2751;49.802;9.944;2023-03-26T16:03:16;12.90;4.70
5457;DHT22;2751;49.802;9.944;2023-03-26T16:06:10;13.00;5.20
5457;DHT22;2751;49.802;9.944;2023-03-26T16:08:47;13.10;1.40
5457;DHT22;2751;49.802;9.944;2023-03-26T16:11:43;13.50;16.40
5457;DHT22;2751;49.802;9.944;2023-03-26T16:14:17;13.10;4.30
5457;DHT22;2751;49.802;9.944;2023-03-26T16:16:51;13.10;1.00
5457;DHT22;2751;49.802;9.944;2023-03-26T16:19:34;13.00;1.00
5457;DHT22;2751;49.802;9.944;2023-03-26T16:22:06;13.00;1.00
5457;DHT22;2751;49.802;9.944;2023-03-26T16:24:35;12.90;1.00
5457;DHT22;2751;49.802;9.944;2023-03-26T16:27:24;12.90;1.00
5457;DHT22;2751;49.802;9.944;2023-03-26T16:30:26;12.80;1.00
5457;DHT22;2751;49.802;9.944;2023-03-26T16:32:56;12.70;6.10
5457;DHT22;2751;49.802;9.944;2023-03-26T16:35:39;12.50;4.20
5457;DHT22;2751;49.802;9.944;2023-03-26T16:38:10;12.40;1.00
5457;DHT22;2751;49.802;9.944;2023-03-26T16:41:06;12.20;1.00
5457;DHT22;2751;49.802;9.944;2023-03-26T16:44:04;12.10;1.00
5457;DHT22;2751;49.802;9.944;2023-03-26T16:46:42;11.90;1.00
5457;DHT22;2751;49.802;9.944;2023-03-26T16:49:21;11.60;1.00
5457;DHT22;2751;49.802;9.944;2023-03-26T16:52:04;11.40;1.00
5457;DHT22;2751;49.802;9.944;2023-03-26T16:54:42;11.30;1.00
5457;DHT22;2751;49.802;9.944;2023-03-26T16:57:19;11.30;1.00
5457;DHT22;2751;49.802;9.944;2023-03-26T17:00:20;11.40;1.00
5457;DHT22;2751;49.802;9.944;2023-03-26T17:02:55;11.10;7.90
5457;DHT22;2751;49.802;9.944;2023-03-26T17:05:35;11.30;4.60
5457;DHT22;2751;49.802;9.944;2023-03-26T17:08:10;11.00;1.00
5457;DHT22;2751;49.802;9.944;2023-03-26T17:10:43;11.00;1.00
5457;DHT22;2751;49.802;9.944;2023-03-26T17:13:15;10.90;1.00
5457;DHT22;2751;49.802;9.944;2023-03-26T17:16:07;11.10;1.00
5457;DHT22;2751;49.802;9.944;2023-03-26T17:18:44;10.70;1.00
5457;DHT22;2751;49.802;9.944;2023-03-26T17:21:16;10.60;1.00
5457;DHT22;2751;49.802;9.944;2023-03-26T17:24:04;10.90;1.00
5457;DHT22;2751;49.802;9.944;2023-03-26T17:26:42;10.60;2.20
5457;DHT22;2751;49.802;9.944;2023-03-26T17:29:20;10.50;1.00
5457;DHT22;2751;49.802;9.944;2023-03-26T17:31:51;10.50;1.00
5457;DHT22;2751;49.802;9.944;2023-03-26T17:34:53;10.40;1.00
5457;DHT22;2751;49.802;9.944;2023-03-26T17:37:43;10.30;1.00
5457;DHT22;2751;49.802;9.944;2023-03-26T17:40:44;10.20;1.00
5457;DHT22;2751;49.802;9.944;2023-03-26T17:43:30;10.10;1.00
5457;DHT22;2751;49.802;9.944;2023-03-26T17:45:58;10.10;1.00
5457;DHT22;2751;49.802;9.944;2023-03-26T17:48:29;10.00;1.00
5457;DHT22;2751;49.802;9.944;2023-03-26T17:51:03;10.00;1.00
5457;DHT22;2751;49.802;9.944;2023-03-26T17:53:33;10.00;1.00
5457;DHT22;2751;49.802;9.944;2023-03-26T17:56:04;10.10;1.00